createdAt,value
2023-04-16T00:00:16.311Z,102377.13
2023-04-16T00:02:45.666Z,102380.47
2023-04-16T00:05:17.626Z,102373.59
2023-04-16T00:07:47.605Z,102381.72
2023-04-16T00:10:18.450Z,102376.38
2023-04-16T00:12:49.600Z,102381.34
2023-04-16T00:15:18.571Z,102375.59
2023-04-16T00:17:47.791Z,102367.00
2023-04-16T00:20:20.630Z,102374.44
2023-04-16T00:22:49.581Z,102379.09
2023-04-16T00:25:18.376Z,102372.63
2023-04-16T00:27:47.503Z,102370.72
2023-04-16T00:30:16.840Z,102367.16
2023-04-16T00:32:46.351Z,102370.22
2023-04-16T00:35:15.494Z,102357.88
2023-04-16T00:37:46.139Z,102364.34
2023-04-16T00:40:16.551Z,102362.88
2023-04-16T00:42:49.886Z,102368.69
2023-04-16T00:45:19.247Z,102363.00
2023-04-16T00:47:48.214Z,102363.44
2023-04-16T00:50:18.669Z,102359.00
2023-04-16T00:52:52.370Z,102365.41
2023-04-16T00:55:23.035Z,102366.31
2023-04-16T00:58:03.276Z,102356.59
2023-04-16T01:00:37.175Z,102364.59
2023-04-16T01:03:08.650Z,102372.25
2023-04-16T01:05:37.832Z,102369.66
2023-04-16T01:08:09.303Z,102363.44
2023-04-16T01:10:39.179Z,102373.25
2023-04-16T01:13:09.817Z,102367.59
2023-04-16T01:15:38.977Z,102371.59
2023-04-16T01:18:17.559Z,102355.31
2023-04-16T01:20:48.782Z,102362.00
2023-04-16T01:23:19.916Z,102364.22
2023-04-16T01:25:53.013Z,102360.59
2023-04-16T01:28:23.058Z,102364.28
2023-04-16T01:30:53.056Z,102377.16
2023-04-16T01:33:23.795Z,102373.69
2023-04-16T01:35:55.923Z,102375.34
2023-04-16T01:38:25.957Z,102377.00
2023-04-16T01:40:59.587Z,102374.59
2023-04-16T01:43:32.932Z,102371.91
2023-04-16T01:46:19.086Z,102375.94
2023-04-16T01:48:56.409Z,102375.31
2023-04-16T01:51:33.641Z,102379.09
2023-04-16T01:54:07.022Z,102373.41
2023-04-16T01:56:37.061Z,102384.13
2023-04-16T01:59:07.517Z,102373.75
2023-04-16T02:01:42.921Z,102372.44
2023-04-16T02:04:16.958Z,102368.75
2023-04-16T02:06:52.952Z,102381.44
2023-04-16T02:09:51.022Z,102381.63
2023-04-16T02:12:23.024Z,102376.38
2023-04-16T02:14:57.746Z,102378.94
2023-04-16T02:17:28.602Z,102383.09
2023-04-16T02:20:15.766Z,102384.34
2023-04-16T02:22:46.868Z,102378.31
2023-04-16T02:25:15.978Z,102378.44
2023-04-16T02:27:52.977Z,102376.47
2023-04-16T02:30:25.576Z,102373.63
2023-04-16T02:32:57.317Z,102379.09
2023-04-16T02:35:27.624Z,102389.56
2023-04-16T02:37:59.371Z,102380.19
2023-04-16T02:40:30.076Z,102377.34
2023-04-16T02:43:00.968Z,102369.84
2023-04-16T02:45:32.172Z,102383.88
2023-04-16T02:48:17.730Z,102377.69
2023-04-16T02:50:53.026Z,102376.38
2023-04-16T02:53:45.624Z,102382.28
2023-04-16T02:56:28.742Z,102383.03
2023-04-16T02:59:07.953Z,102391.06
2023-04-16T03:01:58.727Z,102387.66
2023-04-16T03:04:28.961Z,102394.38
2023-04-16T03:06:58.127Z,102396.66
2023-04-16T03:09:29.212Z,102398.13
2023-04-16T03:12:00.220Z,102399.56
2023-04-16T03:14:31.090Z,102396.78
2023-04-16T03:17:02.747Z,102392.22
2023-04-16T03:19:34.951Z,102396.94
2023-04-16T03:22:03.995Z,102401.63
2023-04-16T03:24:37.269Z,102389.81
2023-04-16T03:27:08.354Z,102400.56
2023-04-16T03:29:42.006Z,102399.34
2023-04-16T03:32:12.979Z,102402.91
2023-04-16T03:34:42.077Z,102400.22
2023-04-16T03:37:13.479Z,102414.38
2023-04-16T03:39:44.756Z,102400.75
2023-04-16T03:42:14.777Z,102408.97
2023-04-16T03:44:43.532Z,102412.88
2023-04-16T03:47:15.031Z,102408.22
2023-04-16T03:49:44.151Z,102417.53
2023-04-16T03:52:13.313Z,102411.69
2023-04-16T03:54:43.029Z,102418.41
2023-04-16T03:57:11.665Z,102411.59
2023-04-16T03:59:40.553Z,102419.28
2023-04-16T04:02:09.969Z,102421.25
2023-04-16T04:04:39.158Z,102421.22
2023-04-16T04:07:07.915Z,102420.25
2023-04-16T04:09:37.283Z,102428.78
2023-04-16T04:12:08.088Z,102424.25
2023-04-16T04:14:39.927Z,102426.53
2023-04-16T04:17:11.807Z,102427.72
2023-04-16T04:19:47.160Z,102415.63
2023-04-16T04:22:24.566Z,102420.59
2023-04-16T04:24:57.025Z,102423.19
2023-04-16T04:27:28.646Z,102422.00
2023-04-16T04:29:57.956Z,102423.00
2023-04-16T04:32:29.274Z,102415.06
2023-04-16T04:34:59.168Z,102426.97
2023-04-16T04:37:29.961Z,102429.31
2023-04-16T04:39:58.875Z,102431.31
2023-04-16T04:42:28.904Z,102431.06
2023-04-16T04:44:57.748Z,102433.53
2023-04-16T04:47:28.382Z,102447.59
2023-04-16T04:49:59.860Z,102444.69
2023-04-16T04:52:29.316Z,102441.66
2023-04-16T04:55:02.058Z,102447.13
2023-04-16T04:57:35.869Z,102437.25
2023-04-16T05:00:07.394Z,102446.19
2023-04-16T05:02:36.465Z,102449.41
2023-04-16T05:05:15.588Z,102445.63
2023-04-16T05:07:45.745Z,102454.56
2023-04-16T05:10:20.308Z,102447.81
2023-04-16T05:12:57.571Z,102450.91
2023-04-16T05:15:28.043Z,102448.72
2023-04-16T05:17:58.036Z,102453.22
2023-04-16T05:20:31.199Z,102450.91
2023-04-16T05:23:08.056Z,102453.03
2023-04-16T05:25:37.415Z,102454.25
2023-04-16T05:28:08.387Z,102445.28
2023-04-16T05:30:37.502Z,102458.72
2023-04-16T05:33:10.144Z,102465.06
2023-04-16T05:35:40.677Z,102461.03
2023-04-16T05:38:10.508Z,102461.88
2023-04-16T05:40:40.215Z,102461.53
2023-04-16T05:43:10.528Z,102463.66
2023-04-16T05:45:44.021Z,102470.81
2023-04-16T05:48:14.469Z,102473.44
2023-04-16T05:50:43.142Z,102468.88
2023-04-16T05:53:15.386Z,102467.28
2023-04-16T05:55:48.418Z,102477.50
2023-04-16T05:58:22.233Z,102478.41
2023-04-16T06:00:51.827Z,102481.28
2023-04-16T06:03:20.640Z,102485.00
2023-04-16T06:05:59.109Z,102475.59
2023-04-16T06:08:28.273Z,102481.09
2023-04-16T06:10:58.464Z,102475.94
2023-04-16T06:13:29.493Z,102480.75
2023-04-16T06:16:00.119Z,102478.97
2023-04-16T06:18:31.578Z,102478.53
2023-04-16T06:21:05.278Z,102479.38
2023-04-16T06:23:34.756Z,102481.09
2023-04-16T06:26:06.272Z,102481.59
2023-04-16T06:28:37.322Z,102485.59
2023-04-16T06:31:09.115Z,102488.75
2023-04-16T06:33:41.872Z,102496.69
2023-04-16T06:36:11.524Z,102496.63
2023-04-16T06:38:41.704Z,102499.41
2023-04-16T06:41:10.454Z,102509.00
2023-04-16T06:43:42.838Z,102505.56
2023-04-16T06:46:13.852Z,102511.81
2023-04-16T06:49:02.055Z,102514.38
2023-04-16T06:51:34.402Z,102521.34
2023-04-16T06:54:03.623Z,102521.47
2023-04-16T06:56:32.896Z,102524.59
2023-04-16T06:59:09.313Z,102519.09
2023-04-16T07:01:39.257Z,102527.09
2023-04-16T07:04:08.368Z,102529.72
2023-04-16T07:06:37.149Z,102520.03
2023-04-16T07:09:07.297Z,102530.44
2023-04-16T07:11:37.977Z,102523.63
2023-04-16T07:14:09.358Z,102521.75
2023-04-16T07:16:41.753Z,102527.94
2023-04-16T07:19:14.001Z,102533.69
2023-04-16T07:21:44.730Z,102527.94
2023-04-16T07:24:14.690Z,102537.41
2023-04-16T07:26:44.381Z,102527.22
2023-04-16T07:29:18.280Z,102527.97
2023-04-16T07:31:47.923Z,102532.47
2023-04-16T07:34:21.009Z,102532.94
2023-04-16T07:36:50.277Z,102529.44
2023-04-16T07:39:18.934Z,102546.66
2023-04-16T07:41:48.194Z,102542.13
2023-04-16T07:44:21.424Z,102543.22
2023-04-16T07:46:58.552Z,102541.03
2023-04-16T07:49:27.512Z,102561.44
2023-04-16T07:51:57.107Z,102550.91
2023-04-16T07:54:29.000Z,102557.94
2023-04-16T07:57:02.104Z,102559.88
2023-04-16T07:59:33.235Z,102558.44
2023-04-16T08:02:02.514Z,102558.72
2023-04-16T08:04:34.462Z,102567.78
2023-04-16T08:07:03.176Z,102566.19
2023-04-16T08:09:35.046Z,102571.53
2023-04-16T08:12:05.130Z,102579.44
2023-04-16T08:14:35.602Z,102569.78
2023-04-16T08:17:04.428Z,102572.88
2023-04-16T08:19:32.764Z,102583.34
2023-04-16T08:22:01.858Z,102580.66
2023-04-16T08:24:30.521Z,102585.78
2023-04-16T08:27:08.154Z,102587.78
2023-04-16T08:29:45.947Z,102583.09
2023-04-16T08:32:15.558Z,102582.53
2023-04-16T08:34:44.582Z,102585.88
2023-04-16T08:37:13.327Z,102578.38
2023-04-16T08:39:42.134Z,102586.72
2023-04-16T08:42:23.719Z,102577.22
2023-04-16T08:45:03.669Z,102590.47
2023-04-16T08:47:35.651Z,102589.22
2023-04-16T08:50:06.777Z,102595.31
2023-04-16T08:52:39.096Z,102596.16
2023-04-16T08:55:13.497Z,102585.25
2023-04-16T08:57:50.248Z,102587.50
2023-04-16T09:00:21.987Z,102597.13
2023-04-16T09:02:51.742Z,102604.03
2023-04-16T09:05:21.560Z,102605.00
2023-04-16T09:07:50.809Z,102603.94
2023-04-16T09:10:20.313Z,102603.03
2023-04-16T09:12:48.918Z,102607.22
2023-04-16T09:15:17.732Z,102602.28
2023-04-16T09:17:48.001Z,102610.22
2023-04-16T09:20:17.157Z,102608.66
2023-04-16T09:22:46.667Z,102624.03
2023-04-16T09:25:15.714Z,102622.78
2023-04-16T09:27:45.155Z,102612.69
2023-04-16T09:30:27.838Z,102616.72
2023-04-16T09:33:16.920Z,102615.19
2023-04-16T09:35:48.828Z,102612.53
2023-04-16T09:38:18.211Z,102620.16
2023-04-16T09:40:47.876Z,102627.50
2023-04-16T09:43:19.022Z,102626.28
2023-04-16T09:45:52.118Z,102625.28
2023-04-16T09:48:35.422Z,102622.63
2023-04-16T09:51:07.068Z,102625.44
2023-04-16T09:53:36.063Z,102631.38
2023-04-16T09:56:07.361Z,102635.97
2023-04-16T09:58:38.517Z,102630.16
2023-04-16T10:01:10.654Z,102627.97
2023-04-16T10:03:44.426Z,102636.19
2023-04-16T10:06:18.370Z,102635.72
2023-04-16T10:08:50.279Z,102634.16
2023-04-16T10:11:20.966Z,102635.00
2023-04-16T10:13:52.705Z,102640.53
2023-04-16T10:16:23.358Z,102646.34
2023-04-16T10:18:54.622Z,102636.72
2023-04-16T10:21:34.452Z,102638.09
2023-04-16T10:24:04.266Z,102642.94
2023-04-16T10:26:36.554Z,102648.63
2023-04-16T10:29:08.656Z,102647.50
2023-04-16T10:31:40.136Z,102637.88
2023-04-16T10:34:14.187Z,102642.41
2023-04-16T10:36:43.830Z,102640.75
2023-04-16T10:39:17.060Z,102649.06
2023-04-16T10:41:46.821Z,102647.50
2023-04-16T10:44:18.425Z,102639.16
2023-04-16T10:46:50.709Z,102648.31
2023-04-16T10:49:25.408Z,102657.16
2023-04-16T10:51:59.831Z,102655.94
2023-04-16T10:54:30.891Z,102642.06
2023-04-16T10:57:04.660Z,102664.59
2023-04-16T10:59:35.554Z,102656.50
2023-04-16T11:02:10.341Z,102644.88
2023-04-16T11:04:44.103Z,102652.88
2023-04-16T11:07:21.581Z,102657.72
2023-04-16T11:09:57.810Z,102643.97
2023-04-16T11:12:29.327Z,102639.41
2023-04-16T11:15:02.659Z,102651.28
2023-04-16T11:17:38.660Z,102649.59
2023-04-16T11:20:19.079Z,102650.47
2023-04-16T11:22:50.549Z,102647.47
2023-04-16T11:25:22.655Z,102648.31
2023-04-16T11:27:52.138Z,102656.88
2023-04-16T11:30:30.898Z,102651.16
2023-04-16T11:33:00.248Z,102657.16
2023-04-16T11:35:30.772Z,102654.81
2023-04-16T11:38:00.711Z,102655.25
2023-04-16T11:40:32.743Z,102655.81
2023-04-16T11:43:05.362Z,102654.25
2023-04-16T11:45:35.374Z,102651.75
2023-04-16T11:48:04.414Z,102654.63
2023-04-16T11:50:36.766Z,102645.56
2023-04-16T11:53:07.457Z,102661.06
2023-04-16T11:55:45.992Z,102649.72
2023-04-16T11:58:16.983Z,102652.72
2023-04-16T12:00:50.054Z,102653.47
2023-04-16T12:03:22.158Z,102654.13
2023-04-16T12:05:52.329Z,102655.72
2023-04-16T12:08:32.396Z,102667.66
2023-04-16T12:11:01.313Z,102666.59
2023-04-16T12:13:30.774Z,102655.25
2023-04-16T12:15:59.602Z,102660.47
2023-04-16T12:18:30.238Z,102657.47
2023-04-16T12:21:01.829Z,102651.47
2023-04-16T12:23:36.411Z,102673.88
2023-04-16T12:26:10.996Z,102664.94
2023-04-16T12:28:40.425Z,102667.56
2023-04-16T12:31:11.107Z,102659.03
2023-04-16T12:33:43.523Z,102670.28
2023-04-16T12:36:23.153Z,102672.88
2023-04-16T12:38:52.100Z,102666.72
2023-04-16T12:41:22.359Z,102667.72
2023-04-16T12:43:51.648Z,102672.63
2023-04-16T12:46:20.559Z,102659.31
2023-04-16T12:48:49.984Z,102666.59
2023-04-16T12:51:18.768Z,102660.34
2023-04-16T12:53:50.025Z,102651.75
2023-04-16T12:56:18.971Z,102665.00
2023-04-16T12:58:50.764Z,102674.88
2023-04-16T13:01:20.304Z,102669.22
2023-04-16T13:03:49.788Z,102672.97
2023-04-16T13:06:19.736Z,102676.81
2023-04-16T13:08:50.072Z,102680.53
2023-04-16T13:11:19.192Z,102678.97
2023-04-16T13:13:47.854Z,102674.22
2023-04-16T13:16:16.534Z,102673.28
2023-04-16T13:18:45.548Z,102675.03
2023-04-16T13:21:14.302Z,102680.94
2023-04-16T13:23:45.940Z,102677.34
2023-04-16T13:26:16.454Z,102671.25
2023-04-16T13:28:44.977Z,102677.25
2023-04-16T13:31:14.277Z,102671.69
2023-04-16T13:33:43.234Z,102673.50
2023-04-16T13:36:12.049Z,102671.78
2023-04-16T13:38:44.054Z,102674.09
2023-04-16T13:41:13.092Z,102667.19
2023-04-16T13:43:43.544Z,102667.38
2023-04-16T13:46:12.214Z,102662.81
2023-04-16T13:48:40.994Z,102660.19
2023-04-16T13:51:09.934Z,102668.88
2023-04-16T13:53:38.760Z,102655.00
2023-04-16T13:56:08.097Z,102664.03
2023-04-16T13:58:36.772Z,102660.75
2023-04-16T14:01:07.295Z,102669.66
2023-04-16T14:03:38.741Z,102667.41
2023-04-16T14:06:07.919Z,102671.41
2023-04-16T14:08:38.663Z,102662.66
2023-04-16T14:11:11.652Z,102671.56
2023-04-16T14:13:41.426Z,102666.13
2023-04-16T14:16:11.832Z,102666.16
2023-04-16T14:18:42.525Z,102652.78
2023-04-16T14:21:11.269Z,102660.59
2023-04-16T14:23:40.351Z,102661.78
2023-04-16T14:26:09.542Z,102665.06
2023-04-16T14:28:38.317Z,102666.50
2023-04-16T14:31:06.978Z,102664.09
2023-04-16T14:33:37.661Z,102658.06
2023-04-16T14:36:07.486Z,102664.72
2023-04-16T14:38:36.091Z,102672.34
2023-04-16T14:41:05.035Z,102662.94
2023-04-16T14:43:33.635Z,102675.47
2023-04-16T14:46:03.618Z,102666.38
2023-04-16T14:48:32.312Z,102671.25
2023-04-16T14:51:02.227Z,102666.81
2023-04-16T14:53:30.909Z,102671.59
2023-04-16T14:55:59.350Z,102668.25
2023-04-16T14:58:28.474Z,102659.06
2023-04-16T15:00:57.033Z,102662.47
2023-04-16T15:03:31.476Z,102655.81
2023-04-16T15:06:02.498Z,102659.84
2023-04-16T15:08:31.600Z,102666.44
2023-04-16T15:11:00.106Z,102664.34
2023-04-16T15:13:33.979Z,102670.66
2023-04-16T15:16:02.940Z,102659.09
2023-04-16T15:18:32.139Z,102672.38
2023-04-16T15:21:02.201Z,102670.81
2023-04-16T15:23:31.802Z,102669.47
2023-04-16T15:26:00.898Z,102672.19
2023-04-16T15:28:29.464Z,102664.16
2023-04-16T15:30:59.721Z,102670.00
2023-04-16T15:33:28.388Z,102663.91
2023-04-16T15:35:57.102Z,102662.22
2023-04-16T15:38:29.980Z,102667.06
2023-04-16T15:41:01.316Z,102669.09
2023-04-16T15:43:30.521Z,102666.97
2023-04-16T15:45:59.273Z,102664.44
2023-04-16T15:48:28.084Z,102659.16
2023-04-16T15:50:58.311Z,102670.03
2023-04-16T15:53:28.675Z,102663.19
2023-04-16T15:55:57.198Z,102653.38
2023-04-16T15:58:26.036Z,102657.59
2023-04-16T16:00:54.389Z,102655.63
2023-04-16T16:03:22.892Z,102656.81
2023-04-16T16:05:51.158Z,102655.38
2023-04-16T16:08:19.807Z,102649.91
2023-04-16T16:10:52.806Z,102650.09
2023-04-16T16:13:22.323Z,102656.06
2023-04-16T16:15:53.529Z,102651.41
2023-04-16T16:18:23.691Z,102648.81
2023-04-16T16:20:58.475Z,102650.38
2023-04-16T16:23:27.559Z,102651.84
2023-04-16T16:25:57.933Z,102660.66
2023-04-16T16:28:29.519Z,102662.91
2023-04-16T16:30:59.642Z,102662.50
2023-04-16T16:33:31.784Z,102668.41
2023-04-16T16:36:00.756Z,102670.81
2023-04-16T16:38:29.591Z,102668.78
2023-04-16T16:40:59.685Z,102668.19
2023-04-16T16:43:28.654Z,102673.53
2023-04-16T16:46:06.309Z,102672.03
2023-04-16T16:48:35.689Z,102664.38
2023-04-16T16:51:06.256Z,102677.13
2023-04-16T16:53:35.199Z,102675.50
2023-04-16T16:56:08.958Z,102670.78
2023-04-16T16:58:37.604Z,102679.44
2023-04-16T17:01:06.918Z,102682.91
2023-04-16T17:03:51.066Z,102683.81
2023-04-16T17:06:29.149Z,102689.72
2023-04-16T17:08:58.161Z,102673.78
2023-04-16T17:11:31.464Z,102678.75
2023-04-16T17:14:00.167Z,102675.44
2023-04-16T17:16:28.672Z,102679.00
2023-04-16T17:18:59.335Z,102680.84
2023-04-16T17:21:28.016Z,102676.94
2023-04-16T17:23:58.250Z,102683.63
2023-04-16T17:26:27.390Z,102691.75
2023-04-16T17:28:59.418Z,102691.16
2023-04-16T17:31:29.609Z,102686.75
2023-04-16T17:34:07.400Z,102674.28
2023-04-16T17:37:02.208Z,102690.31
2023-04-16T17:39:30.722Z,102699.69
2023-04-16T17:42:04.263Z,102709.09
2023-04-16T17:44:37.342Z,102704.34
2023-04-16T17:47:06.732Z,102711.31
2023-04-16T17:49:39.016Z,102705.22
2023-04-16T17:52:08.171Z,102696.81
2023-04-16T17:54:42.414Z,102710.31
2023-04-16T17:57:10.891Z,102713.16
2023-04-16T17:59:40.926Z,102714.47
2023-04-16T18:02:09.936Z,102714.19
2023-04-16T18:04:38.857Z,102714.41
2023-04-16T18:07:10.439Z,102733.44
2023-04-16T18:09:40.476Z,102727.66
2023-04-16T18:12:09.524Z,102731.78
2023-04-16T18:14:38.952Z,102733.44
2023-04-16T18:17:10.037Z,102740.91
2023-04-16T18:19:40.660Z,102732.59
2023-04-16T18:22:09.571Z,102746.28
2023-04-16T18:24:38.420Z,102746.59
2023-04-16T18:27:07.341Z,102746.59
2023-04-16T18:29:38.825Z,102735.59
2023-04-16T18:32:12.323Z,102735.00
2023-04-16T18:34:41.555Z,102743.47
2023-04-16T18:37:10.492Z,102750.66
2023-04-16T18:39:39.254Z,102765.59
2023-04-16T18:42:08.118Z,102749.22
2023-04-16T18:44:37.310Z,102765.06
2023-04-16T18:47:06.548Z,102766.97
2023-04-16T18:49:37.369Z,102760.22
2023-04-16T18:52:06.175Z,102762.91
2023-04-16T18:54:34.768Z,102771.31
2023-04-16T18:57:03.762Z,102771.75
2023-04-16T18:59:32.549Z,102774.00
2023-04-16T19:02:01.293Z,102776.19
2023-04-16T19:04:30.524Z,102757.38
2023-04-16T19:07:01.449Z,102758.56
2023-04-16T19:09:30.936Z,102766.16
2023-04-16T19:11:59.724Z,102765.19
2023-04-16T19:14:28.765Z,102768.22
2023-04-16T19:16:58.035Z,102771.66
2023-04-16T19:19:27.987Z,102767.19
2023-04-16T19:21:56.741Z,102775.22
2023-04-16T19:24:35.745Z,102789.91
2023-04-16T19:27:04.672Z,102785.13
2023-04-16T19:29:35.396Z,102784.88
2023-04-16T19:32:04.632Z,102781.53
2023-04-16T19:34:34.094Z,102772.16
2023-04-16T19:37:03.817Z,102786.47
2023-04-16T19:39:35.544Z,102781.94
2023-04-16T19:42:04.655Z,102776.34
2023-04-16T19:44:36.079Z,102795.84
2023-04-16T19:47:06.227Z,102788.53
2023-04-16T19:49:35.549Z,102791.22
2023-04-16T19:52:04.407Z,102786.06
2023-04-16T19:54:37.313Z,102791.78
2023-04-16T19:57:06.301Z,102797.44
2023-04-16T19:59:35.087Z,102789.59
2023-04-16T20:02:04.045Z,102786.56
2023-04-16T20:04:32.978Z,102786.22
2023-04-16T20:07:01.786Z,102787.50
2023-04-16T20:09:31.588Z,102786.94
2023-04-16T20:12:03.748Z,102790.59
2023-04-16T20:14:33.154Z,102782.09
2023-04-16T20:17:02.039Z,102792.38
2023-04-16T20:19:34.342Z,102796.25
2023-04-16T20:22:03.360Z,102792.69
2023-04-16T20:24:32.496Z,102790.06
2023-04-16T20:27:03.285Z,102795.78
2023-04-16T20:29:32.498Z,102787.81
2023-04-16T20:32:01.312Z,102787.97
2023-04-16T20:34:30.363Z,102791.00
2023-04-16T20:36:59.300Z,102776.75
2023-04-16T20:39:28.023Z,102786.91
2023-04-16T20:41:57.924Z,102786.78
2023-04-16T20:44:33.525Z,102794.22
2023-04-16T20:47:02.348Z,102797.06
2023-04-16T20:49:31.393Z,102780.63
2023-04-16T20:52:00.309Z,102778.94
2023-04-16T20:54:29.485Z,102781.53
2023-04-16T20:56:58.483Z,102780.34
2023-04-16T20:59:28.674Z,102779.81
2023-04-16T21:01:57.462Z,102778.59
2023-04-16T21:04:26.086Z,102784.09
2023-04-16T21:06:55.173Z,102782.22
2023-04-16T21:09:24.630Z,102784.44
2023-04-16T21:11:53.081Z,102786.78
2023-04-16T21:14:21.781Z,102785.34
2023-04-16T21:16:52.068Z,102787.59
2023-04-16T21:19:20.808Z,102773.91
2023-04-16T21:21:49.531Z,102778.00
2023-04-16T21:24:18.354Z,102784.16
2023-04-16T21:26:46.735Z,102770.53
2023-04-16T21:29:15.397Z,102783.13
2023-04-16T21:31:43.898Z,102769.41
2023-04-16T21:34:15.968Z,102780.69
2023-04-16T21:36:44.538Z,102787.13
2023-04-16T21:39:13.131Z,102779.75
2023-04-16T21:41:41.675Z,102780.44
2023-04-16T21:44:10.182Z,102775.31
2023-04-16T21:46:39.113Z,102785.50
2023-04-16T21:49:07.792Z,102776.69
2023-04-16T21:51:40.388Z,102788.31
2023-04-16T21:54:09.196Z,102776.09
2023-04-16T21:56:37.678Z,102777.34
2023-04-16T21:59:06.190Z,102780.56
2023-04-16T22:01:34.600Z,102776.63
2023-04-16T22:04:04.085Z,102778.41
2023-04-16T22:06:32.780Z,102780.03
2023-04-16T22:09:02.809Z,102763.22
2023-04-16T22:11:31.255Z,102771.53
2023-04-16T22:13:59.810Z,102768.38
2023-04-16T22:16:28.546Z,102774.78
2023-04-16T22:18:57.526Z,102774.50
2023-04-16T22:21:26.629Z,102766.72
2023-04-16T22:23:55.631Z,102771.22
2023-04-16T22:26:25.881Z,102773.97
2023-04-16T22:28:54.732Z,102778.53
2023-04-16T22:31:23.235Z,102765.16
2023-04-16T22:33:51.628Z,102769.06
2023-04-16T22:36:20.302Z,102771.00
2023-04-16T22:38:49.086Z,102769.31
2023-04-16T22:41:17.902Z,102762.88
2023-04-16T22:43:48.456Z,102776.59
2023-04-16T22:46:20.030Z,102761.66
2023-04-16T22:48:48.894Z,102776.38
2023-04-16T22:51:18.121Z,102776.09
2023-04-16T22:53:46.771Z,102775.09
2023-04-16T22:56:15.498Z,102782.78
2023-04-16T22:58:44.132Z,102777.56
2023-04-16T23:01:14.238Z,102777.63
2023-04-16T23:03:43.261Z,102773.78
2023-04-16T23:06:11.968Z,102788.84
2023-04-16T23:08:40.886Z,102777.50
2023-04-16T23:11:09.593Z,102783.13
2023-04-16T23:13:38.563Z,102788.41
2023-04-16T23:16:08.379Z,102779.91
2023-04-16T23:18:39.034Z,102782.00
2023-04-16T23:21:07.782Z,102786.41
2023-04-16T23:23:36.200Z,102786.31
2023-04-16T23:26:05.145Z,102785.78
2023-04-16T23:28:33.743Z,102797.63
2023-04-16T23:31:03.284Z,102795.69
2023-04-16T23:33:33.658Z,102800.59
2023-04-16T23:36:03.881Z,102794.78
2023-04-16T23:38:32.427Z,102795.03
2023-04-16T23:41:01.084Z,102794.84
2023-04-16T23:43:29.854Z,102798.69
2023-04-16T23:45:58.584Z,102791.09
2023-04-16T23:48:27.298Z,102790.44
2023-04-16T23:50:56.029Z,102801.63
2023-04-16T23:53:26.365Z,102800.56
2023-04-16T23:55:54.967Z,102805.06
2023-04-16T23:58:23.728Z,102810.63
